createdAt,value
2023-07-14T00:01:28.020Z,99171.50
2023-07-14T00:03:58.941Z,99177.72
2023-07-14T00:06:27.303Z,99177.59
2023-07-14T00:08:56.099Z,99184.16
2023-07-14T00:11:26.193Z,99172.91
2023-07-14T00:13:55.721Z,99168.81
2023-07-14T00:16:27.490Z,99176.41
2023-07-14T00:18:57.529Z,99169.19
2023-07-14T00:21:28.065Z,99164.34
2023-07-14T00:23:59.712Z,99165.16
2023-07-14T00:26:28.732Z,99160.75
2023-07-14T00:28:57.172Z,99158.75
2023-07-14T00:31:25.541Z,99164.00
2023-07-14T00:33:55.449Z,99166.38
2023-07-14T00:36:25.348Z,99158.88
2023-07-14T00:38:53.701Z,99160.84
2023-07-14T00:41:24.987Z,99170.56
2023-07-14T00:43:53.914Z,99160.47
2023-07-14T00:46:28.455Z,99171.03
2023-07-14T00:48:59.661Z,99167.84
2023-07-14T00:51:31.057Z,99160.63
2023-07-14T00:53:59.937Z,99172.19
2023-07-14T00:56:36.344Z,99175.47
2023-07-14T00:59:07.340Z,99176.28
2023-07-14T01:01:35.729Z,99176.28
2023-07-14T01:04:04.267Z,99175.25
2023-07-14T01:06:36.393Z,99176.16
2023-07-14T01:09:09.935Z,99180.63
2023-07-14T01:11:40.563Z,99182.72
2023-07-14T01:14:11.794Z,99187.66
2023-07-14T01:16:41.424Z,99186.47
2023-07-14T01:19:12.886Z,99190.47
2023-07-14T01:21:43.600Z,99187.66
2023-07-14T01:24:17.071Z,99188.00
2023-07-14T01:26:57.464Z,99191.63
2023-07-14T01:29:26.234Z,99194.88
2023-07-14T01:31:55.343Z,99189.16
2023-07-14T01:34:23.997Z,99191.50
2023-07-14T01:36:57.974Z,99192.31
2023-07-14T01:39:26.937Z,99191.50
2023-07-14T01:41:56.817Z,99193.94
2023-07-14T01:44:25.844Z,99195.25
2023-07-14T01:46:55.139Z,99203.31
2023-07-14T01:49:40.141Z,99201.69
2023-07-14T01:52:14.506Z,99194.44
2023-07-14T01:54:46.936Z,99195.13
2023-07-14T01:57:19.748Z,99197.00
2023-07-14T01:59:50.742Z,99200.06
2023-07-14T02:02:25.346Z,99211.63
2023-07-14T02:04:54.247Z,99214.66
2023-07-14T02:07:22.622Z,99213.03
2023-07-14T02:09:51.492Z,99207.66
2023-07-14T02:12:28.605Z,99212.78
2023-07-14T02:15:00.425Z,99222.38
2023-07-14T02:17:32.501Z,99211.75
2023-07-14T02:20:22.985Z,99218.41
2023-07-14T02:22:52.403Z,99224.38
2023-07-14T02:25:21.787Z,99214.31
2023-07-14T02:27:51.700Z,99228.09
2023-07-14T02:30:22.737Z,99228.38
2023-07-14T02:32:53.671Z,99231.63
2023-07-14T02:35:25.958Z,99234.91
2023-07-14T02:38:05.578Z,99232.31
2023-07-14T02:40:38.551Z,99232.31
2023-07-14T02:43:10.192Z,99235.47
2023-07-14T02:45:43.855Z,99243.28
2023-07-14T02:48:15.473Z,99244.94
2023-07-14T02:50:44.167Z,99244.47
2023-07-14T02:53:12.734Z,99244.94
2023-07-14T02:55:42.373Z,99253.34
2023-07-14T02:58:12.495Z,99261.31
2023-07-14T03:00:40.870Z,99246.34
2023-07-14T03:03:09.469Z,99258.97
2023-07-14T03:05:38.182Z,99264.13
2023-07-14T03:08:09.095Z,99263.31
2023-07-14T03:10:37.517Z,99265.75
2023-07-14T03:13:06.105Z,99269.03
2023-07-14T03:15:35.897Z,99267.38
2023-07-14T03:18:04.381Z,99262.59
2023-07-14T03:20:33.420Z,99273.13
2023-07-14T03:23:01.951Z,99276.28
2023-07-14T03:25:30.339Z,99271.13
2023-07-14T03:27:58.822Z,99274.88
2023-07-14T03:30:27.729Z,99280.03
2023-07-14T03:32:57.540Z,99288.09
2023-07-14T03:35:26.222Z,99283.31
2023-07-14T03:37:54.642Z,99293.88
2023-07-14T03:40:23.098Z,99290.34
2023-07-14T03:42:51.593Z,99290.59
2023-07-14T03:45:20.024Z,99287.78
2023-07-14T03:47:48.587Z,99293.75
2023-07-14T03:50:18.696Z,99283.47
2023-07-14T03:52:47.603Z,99298.06
2023-07-14T03:55:16.210Z,99281.00
2023-07-14T03:58:00.754Z,99294.34
2023-07-14T04:00:32.279Z,99288.16
2023-07-14T04:03:01.488Z,99309.56
2023-07-14T04:05:31.333Z,99306.78
2023-07-14T04:08:00.083Z,99292.72
2023-07-14T04:10:28.602Z,99298.34
2023-07-14T04:12:58.915Z,99306.53
2023-07-14T04:15:27.273Z,99301.03
2023-07-14T04:17:55.864Z,99309.09
2023-07-14T04:20:24.253Z,99303.97
2023-07-14T04:22:55.162Z,99303.97
2023-07-14T04:25:23.797Z,99304.44
2023-07-14T04:27:53.885Z,99306.22
2023-07-14T04:30:22.702Z,99315.94
2023-07-14T04:32:53.487Z,99324.00
2023-07-14T04:35:21.929Z,99320.84
2023-07-14T04:37:50.281Z,99320.13
2023-07-14T04:40:35.888Z,99326.25
2023-07-14T04:43:05.333Z,99329.06
2023-07-14T04:45:33.877Z,99324.59
2023-07-14T04:48:02.336Z,99324.84
2023-07-14T04:50:30.809Z,99326.47
2023-07-14T04:53:00.319Z,99327.28
2023-07-14T04:55:30.166Z,99329.75
2023-07-14T04:57:58.857Z,99326.00
2023-07-14T05:00:27.566Z,99331.41
2023-07-14T05:02:57.572Z,99333.38
2023-07-14T05:05:27.773Z,99330.22
2023-07-14T05:07:56.840Z,99325.31
2023-07-14T05:10:26.930Z,99329.28
2023-07-14T05:12:58.328Z,99321.91
2023-07-14T05:15:27.664Z,99318.63
2023-07-14T05:17:56.867Z,99321.56
2023-07-14T05:20:26.192Z,99325.53
2023-07-14T05:22:55.731Z,99330.44
2023-07-14T05:25:24.630Z,99334.91
2023-07-14T05:27:53.280Z,99336.78
2023-07-14T05:30:23.728Z,99339.34
2023-07-14T05:32:52.379Z,99340.41
2023-07-14T05:35:21.544Z,99337.38
2023-07-14T05:37:49.952Z,99338.16
2023-07-14T05:40:19.245Z,99341.44
2023-07-14T05:42:49.129Z,99336.53
2023-07-14T05:45:18.233Z,99331.84
2023-07-14T05:47:49.353Z,99335.50
2023-07-14T05:50:18.983Z,99336.06
2023-07-14T05:52:47.709Z,99336.75
2023-07-14T05:55:16.934Z,99331.16
2023-07-14T05:57:46.322Z,99340.59
2023-07-14T06:00:18.350Z,99334.50
2023-07-14T06:02:51.504Z,99341.88
2023-07-14T06:05:20.870Z,99340.94
2023-07-14T06:07:49.923Z,99338.81
2023-07-14T06:10:19.029Z,99357.00
2023-07-14T06:12:47.548Z,99358.50
2023-07-14T06:15:16.597Z,99357.78
2023-07-14T06:17:45.272Z,99351.66
2023-07-14T06:20:15.314Z,99354.28
2023-07-14T06:22:43.844Z,99354.19
2023-07-14T06:25:12.361Z,99351.81
2023-07-14T06:27:40.871Z,99360.16
2023-07-14T06:30:10.801Z,99345.47
2023-07-14T06:32:40.369Z,99358.03
2023-07-14T06:35:11.603Z,99358.66
2023-07-14T06:37:42.400Z,99361.13
2023-07-14T06:40:12.901Z,99356.25
2023-07-14T06:42:41.287Z,99369.16
2023-07-14T06:45:10.721Z,99369.66
2023-07-14T06:47:39.266Z,99370.78
2023-07-14T06:50:08.517Z,99366.59
2023-07-14T06:52:39.301Z,99366.03
2023-07-14T06:55:10.911Z,99373.66
2023-07-14T06:57:39.567Z,99367.31
2023-07-14T07:00:12.333Z,99370.78
2023-07-14T07:02:41.272Z,99374.22
2023-07-14T07:05:11.937Z,99370.22
2023-07-14T07:07:40.445Z,99366.25
2023-07-14T07:10:11.596Z,99372.03
2023-07-14T07:12:40.685Z,99375.41
2023-07-14T07:15:09.872Z,99378.66
2023-07-14T07:17:40.158Z,99372.81
2023-07-14T07:20:10.663Z,99379.03
2023-07-14T07:22:39.353Z,99384.66
2023-07-14T07:25:08.825Z,99378.03
2023-07-14T07:27:38.795Z,99380.34
2023-07-14T07:30:10.562Z,99385.66
2023-07-14T07:32:41.574Z,99386.81
2023-07-14T07:35:11.484Z,99396.84
2023-07-14T07:37:40.268Z,99401.47
2023-07-14T07:40:10.553Z,99400.06
2023-07-14T07:42:41.816Z,99409.94
2023-07-14T07:45:11.046Z,99407.13
2023-07-14T07:47:39.667Z,99415.09
2023-07-14T07:50:09.920Z,99417.91
2023-07-14T07:52:38.476Z,99414.00
2023-07-14T07:55:07.285Z,99415.13
2023-07-14T07:57:35.811Z,99409.06
2023-07-14T08:00:07.917Z,99411.50
2023-07-14T08:02:37.578Z,99408.53
2023-07-14T08:05:07.039Z,99406.22
2023-07-14T08:07:36.154Z,99406.59
2023-07-14T08:10:04.735Z,99412.72
2023-07-14T08:12:33.315Z,99412.09
2023-07-14T08:15:02.120Z,99412.94
2023-07-14T08:17:55.350Z,99408.91
2023-07-14T08:20:24.724Z,99395.75
2023-07-14T08:22:53.201Z,99401.97
2023-07-14T08:25:23.047Z,99402.91
2023-07-14T08:27:52.040Z,99404.50
2023-07-14T08:30:21.727Z,99414.94
2023-07-14T08:32:52.140Z,99416.09
2023-07-14T08:35:21.709Z,99417.59
2023-07-14T08:37:51.107Z,99414.50
2023-07-14T08:40:27.362Z,99417.38
2023-07-14T08:43:21.894Z,99426.63
2023-07-14T08:45:56.598Z,99431.88
2023-07-14T08:48:35.664Z,99439.91
2023-07-14T08:51:09.648Z,99427.91
2023-07-14T08:53:38.264Z,99429.72
2023-07-14T08:56:08.153Z,99435.09
2023-07-14T08:58:41.090Z,99433.91
2023-07-14T09:01:14.827Z,99446.53
2023-07-14T09:03:47.463Z,99433.94
2023-07-14T09:06:25.542Z,99432.84
2023-07-14T09:08:55.948Z,99443.69
2023-07-14T09:11:45.137Z,99443.78
2023-07-14T09:14:31.975Z,99443.69
2023-07-14T09:17:06.444Z,99452.66
2023-07-14T09:19:46.754Z,99439.47
2023-07-14T09:22:21.129Z,99447.78
2023-07-14T09:24:57.997Z,99447.28
2023-07-14T09:27:29.213Z,99445.94
2023-07-14T09:29:58.435Z,99436.25
2023-07-14T09:32:35.768Z,99440.63
2023-07-14T09:35:15.279Z,99433.91
2023-07-14T09:37:49.249Z,99432.94
2023-07-14T09:40:21.070Z,99436.09
2023-07-14T09:42:52.432Z,99437.97
2023-07-14T09:45:23.357Z,99427.34
2023-07-14T09:47:57.952Z,99438.72
2023-07-14T09:50:28.756Z,99434.06
2023-07-14T09:52:59.525Z,99439.47
2023-07-14T09:55:28.180Z,99438.06
2023-07-14T09:58:10.964Z,99441.78
2023-07-14T10:00:42.907Z,99452.03
2023-07-14T10:03:22.809Z,99448.59
2023-07-14T10:05:58.832Z,99449.03
2023-07-14T10:08:30.535Z,99444.88
2023-07-14T10:11:01.178Z,99449.25
2023-07-14T10:13:32.982Z,99451.25
2023-07-14T10:16:09.048Z,99453.72
2023-07-14T10:18:49.185Z,99455.72
2023-07-14T10:21:25.113Z,99459.38
2023-07-14T10:24:01.163Z,99461.00
2023-07-14T10:26:31.727Z,99471.66
2023-07-14T10:29:01.141Z,99474.78
2023-07-14T10:31:39.081Z,99475.41
2023-07-14T10:34:23.339Z,99477.78
2023-07-14T10:36:55.023Z,99474.13
2023-07-14T10:39:32.672Z,99480.50
2023-07-14T10:42:02.395Z,99484.22
2023-07-14T10:44:33.646Z,99475.03
2023-07-14T10:47:04.929Z,99478.56
2023-07-14T10:49:37.583Z,99477.56
2023-07-14T10:52:12.934Z,99489.25
2023-07-14T10:54:48.075Z,99487.94
2023-07-14T10:57:34.389Z,99487.03
2023-07-14T11:00:16.123Z,99487.22
2023-07-14T11:02:48.048Z,99487.69
2023-07-14T11:05:19.660Z,99493.81
2023-07-14T11:07:49.629Z,99488.69
2023-07-14T11:10:28.023Z,99488.97
2023-07-14T11:13:04.953Z,99490.78
2023-07-14T11:15:41.496Z,99487.72
2023-07-14T11:18:20.222Z,99498.16
2023-07-14T11:20:54.054Z,99502.16
2023-07-14T11:23:27.686Z,99506.16
2023-07-14T11:26:00.278Z,99502.81
2023-07-14T11:28:38.517Z,99502.69
2023-07-14T11:31:21.397Z,99503.91
2023-07-14T11:33:55.809Z,99499.44
2023-07-14T11:36:28.896Z,99498.59
2023-07-14T11:38:59.581Z,99492.63
2023-07-14T11:41:28.720Z,99500.16
2023-07-14T11:43:57.875Z,99509.88
2023-07-14T11:46:27.361Z,99509.22
2023-07-14T11:49:06.257Z,99505.91
2023-07-14T11:51:49.834Z,99519.53
2023-07-14T11:54:21.618Z,99512.72
2023-07-14T11:57:01.639Z,99516.47
2023-07-14T11:59:31.584Z,99522.09
2023-07-14T12:02:27.019Z,99526.81
2023-07-14T12:05:05.819Z,99528.94
2023-07-14T12:07:37.057Z,99530.84
2023-07-14T12:10:14.874Z,99531.13
2023-07-14T12:12:45.300Z,99527.16
2023-07-14T12:15:44.525Z,99524.25
2023-07-14T12:18:32.001Z,99527.94
2023-07-14T12:21:23.473Z,99530.75
2023-07-14T12:23:55.118Z,99516.75
2023-07-14T12:26:34.360Z,99527.72
2023-07-14T12:29:04.352Z,99522.88
2023-07-14T12:31:36.978Z,99517.47
2023-07-14T12:34:05.674Z,99514.16
2023-07-14T12:36:34.417Z,99505.84
2023-07-14T12:39:05.809Z,99507.81
2023-07-14T12:41:38.541Z,99502.72
2023-07-14T12:44:07.277Z,99497.81
2023-07-14T12:46:37.778Z,99501.34
2023-07-14T12:49:19.497Z,99490.88
2023-07-14T12:51:48.129Z,99489.03
2023-07-14T12:54:20.044Z,99493.03
2023-07-14T12:56:49.907Z,99490.50
2023-07-14T12:59:19.832Z,99495.31
2023-07-14T13:01:49.093Z,99499.94
2023-07-14T13:04:19.649Z,99496.91
2023-07-14T13:06:49.828Z,99492.84
2023-07-14T13:09:23.386Z,99499.31
2023-07-14T13:11:54.115Z,99501.94
2023-07-14T13:14:23.917Z,99503.84
2023-07-14T13:16:54.172Z,99506.22
2023-07-14T13:19:28.508Z,99511.91
2023-07-14T13:22:01.566Z,99512.72
2023-07-14T13:24:31.967Z,99518.28
2023-07-14T13:27:04.008Z,99519.78
2023-07-14T13:29:38.375Z,99514.91
2023-07-14T13:32:19.427Z,99520.06
2023-07-14T13:34:52.180Z,99522.72
2023-07-14T13:37:20.969Z,99524.19
2023-07-14T13:39:56.709Z,99520.84
2023-07-14T13:42:30.662Z,99521.94
2023-07-14T13:45:01.535Z,99521.72
2023-07-14T13:47:44.929Z,99534.22
2023-07-14T13:50:13.626Z,99534.22
2023-07-14T13:52:42.167Z,99538.22
2023-07-14T13:55:16.229Z,99538.22
2023-07-14T13:57:49.298Z,99535.84
2023-07-14T14:00:21.698Z,99531.03
2023-07-14T14:02:51.543Z,99536.75
2023-07-14T14:05:22.503Z,99543.59
2023-07-14T14:07:53.166Z,99541.69
2023-07-14T14:10:23.676Z,99543.31
2023-07-14T14:12:54.578Z,99540.03
2023-07-14T14:15:24.497Z,99542.41
2023-07-14T14:17:57.894Z,99545.50
2023-07-14T14:20:28.345Z,99551.03
2023-07-14T14:22:57.288Z,99550.34
2023-07-14T14:25:27.717Z,99558.88
2023-07-14T14:27:58.360Z,99547.78
2023-07-14T14:30:43.565Z,99553.59
2023-07-14T14:33:15.082Z,99552.03
2023-07-14T14:35:43.808Z,99542.31
2023-07-14T14:38:27.440Z,99548.38
2023-07-14T14:41:14.268Z,99541.56
2023-07-14T14:43:45.087Z,99551.84
2023-07-14T14:46:13.533Z,99543.38
2023-07-14T14:48:42.942Z,99547.63
2023-07-14T14:51:14.208Z,99547.63
2023-07-14T14:53:43.738Z,99549.97
2023-07-14T14:56:21.054Z,99548.97
2023-07-14T14:58:54.456Z,99548.06
2023-07-14T15:01:28.809Z,99549.59
2023-07-14T15:03:57.168Z,99540.56
2023-07-14T15:06:26.213Z,99555.03
2023-07-14T15:08:54.789Z,99547.72
2023-07-14T15:11:23.288Z,99546.09
2023-07-14T15:13:53.098Z,99544.44
2023-07-14T15:16:21.504Z,99536.81
2023-07-14T15:18:50.344Z,99536.09
2023-07-14T15:21:21.550Z,99546.91
2023-07-14T15:23:51.578Z,99548.91
2023-07-14T15:26:21.744Z,99544.44
2023-07-14T15:28:50.664Z,99540.44
2023-07-14T15:31:20.891Z,99539.63
2023-07-14T15:33:50.267Z,99539.75
2023-07-14T15:36:19.828Z,99534.22
2023-07-14T15:38:48.715Z,99534.31
2023-07-14T15:41:20.608Z,99531.13
2023-07-14T15:43:51.938Z,99543.13
2023-07-14T15:46:23.874Z,99538.09
2023-07-14T15:48:55.031Z,99537.41
2023-07-14T15:51:27.140Z,99535.03
2023-07-14T15:53:57.533Z,99531.78
2023-07-14T15:56:27.237Z,99538.22
2023-07-14T15:58:55.875Z,99531.28
2023-07-14T16:01:30.627Z,99530.13
2023-07-14T16:04:01.135Z,99532.59
2023-07-14T16:06:31.389Z,99526.13
2023-07-14T16:09:00.381Z,99525.66
2023-07-14T16:11:31.044Z,99532.47
2023-07-14T16:14:01.521Z,99526.81
2023-07-14T16:16:32.080Z,99519.53
2023-07-14T16:19:01.221Z,99524.47
2023-07-14T16:21:31.351Z,99522.84
2023-07-14T16:24:01.659Z,99517.91
2023-07-14T16:26:30.687Z,99517.41
2023-07-14T16:28:59.129Z,99517.41
2023-07-14T16:31:27.947Z,99509.44
2023-07-14T16:33:57.851Z,99510.59
2023-07-14T16:36:29.840Z,99513.78
2023-07-14T16:39:02.653Z,99514.59
2023-07-14T16:41:31.605Z,99512.84
2023-07-14T16:44:00.007Z,99523.31
2023-07-14T16:46:32.714Z,99524.13
2023-07-14T16:49:03.289Z,99527.22
2023-07-14T16:51:31.658Z,99539.19
2023-07-14T16:54:01.242Z,99533.47
2023-07-14T16:56:29.734Z,99531.81
2023-07-14T16:58:58.268Z,99542.16
2023-07-14T17:01:26.850Z,99541.25
2023-07-14T17:03:55.920Z,99533.97
2023-07-14T17:06:42.117Z,99543.16
2023-07-14T17:09:18.040Z,99539.41
2023-07-14T17:11:46.552Z,99547.50
2023-07-14T17:14:17.681Z,99539.41
2023-07-14T17:16:46.258Z,99541.41
2023-07-14T17:19:16.407Z,99530.50
2023-07-14T17:21:48.387Z,99532.84
2023-07-14T17:24:19.654Z,99530.38
2023-07-14T17:26:48.299Z,99529.34
2023-07-14T17:29:25.414Z,99530.88
2023-07-14T17:31:54.731Z,99529.81
2023-07-14T17:34:23.258Z,99535.72
2023-07-14T17:36:53.224Z,99533.88
2023-07-14T17:39:39.795Z,99535.97
2023-07-14T17:42:18.129Z,99531.28
2023-07-14T17:44:46.514Z,99535.50
2023-07-14T17:47:14.926Z,99527.88
2023-07-14T17:49:43.853Z,99526.81
2023-07-14T17:52:16.956Z,99529.41
2023-07-14T17:54:46.218Z,99535.97
2023-07-14T17:57:17.284Z,99530.56
2023-07-14T17:59:51.787Z,99547.78
2023-07-14T18:02:26.599Z,99541.09
2023-07-14T18:04:55.275Z,99552.56
2023-07-14T18:07:25.341Z,99551.41
2023-07-14T18:09:53.926Z,99549.03
2023-07-14T18:12:23.058Z,99553.03
2023-07-14T18:14:51.707Z,99551.16
2023-07-14T18:17:20.525Z,99544.56
2023-07-14T18:19:50.175Z,99541.75
2023-07-14T18:22:27.944Z,99540.59
2023-07-14T18:24:57.690Z,99541.28
2023-07-14T18:27:26.360Z,99541.28
2023-07-14T18:29:56.208Z,99538.47
2023-07-14T18:32:24.930Z,99531.19
2023-07-14T18:34:53.372Z,99535.06
2023-07-14T18:37:21.888Z,99524.94
2023-07-14T18:39:52.684Z,99527.47
2023-07-14T18:42:25.395Z,99525.16
2023-07-14T18:44:54.268Z,99526.81
2023-07-14T18:47:23.465Z,99532.06
2023-07-14T18:49:53.160Z,99538.28
2023-07-14T18:52:22.008Z,99543.47
2023-07-14T18:54:51.773Z,99540.75
2023-07-14T18:57:20.998Z,99543.34
2023-07-14T18:59:50.145Z,99541.94
2023-07-14T19:02:34.072Z,99537.13
2023-07-14T19:05:09.340Z,99530.91
2023-07-14T19:07:38.078Z,99534.78
2023-07-14T19:10:13.267Z,99541.09
2023-07-14T19:12:41.974Z,99536.41
2023-07-14T19:15:19.530Z,99535.16
2023-07-14T19:17:48.828Z,99532.81
2023-07-14T19:20:20.141Z,99543.25
2023-07-14T19:22:50.267Z,99541.47
2023-07-14T19:25:21.676Z,99544.63
2023-07-14T19:27:50.727Z,99545.84
2023-07-14T19:30:23.134Z,99544.09
2023-07-14T19:32:58.022Z,99546.44
2023-07-14T19:35:26.910Z,99550.31
2023-07-14T19:37:55.245Z,99548.91
2023-07-14T19:40:27.097Z,99551.56
2023-07-14T19:42:56.064Z,99547.34
2023-07-14T19:45:26.195Z,99549.56
2023-07-14T19:47:54.924Z,99549.56
2023-07-14T19:50:24.390Z,99550.25
2023-07-14T19:52:52.915Z,99549.31
2023-07-14T19:55:25.454Z,99549.22
2023-07-14T19:57:53.965Z,99550.97
2023-07-14T20:00:24.281Z,99556.59
2023-07-14T20:02:53.485Z,99542.06
2023-07-14T20:05:25.780Z,99550.03
2023-07-14T20:07:55.084Z,99550.16
2023-07-14T20:10:25.078Z,99545.34
2023-07-14T20:12:54.158Z,99546.06
2023-07-14T20:15:25.268Z,99541.00
2023-07-14T20:17:54.418Z,99540.78
2023-07-14T20:20:23.010Z,99541.59
2023-07-14T20:22:53.280Z,99544.16
2023-07-14T20:25:23.464Z,99533.88
2023-07-14T20:27:53.490Z,99539.34
2023-07-14T20:30:24.336Z,99542.03
2023-07-14T20:32:53.517Z,99537.03
2023-07-14T20:35:25.724Z,99539.72
2023-07-14T20:37:54.449Z,99539.22
2023-07-14T20:40:23.175Z,99539.22
2023-07-14T20:42:52.905Z,99538.06
2023-07-14T20:45:23.300Z,99539.22
2023-07-14T20:47:51.942Z,99541.09
2023-07-14T20:50:22.525Z,99546.28
2023-07-14T20:52:53.166Z,99543.91
2023-07-14T20:55:28.676Z,99544.63
2023-07-14T20:57:59.393Z,99544.34
2023-07-14T21:00:27.859Z,99536.28
2023-07-14T21:02:56.349Z,99544.84
2023-07-14T21:05:25.186Z,99540.16
2023-07-14T21:07:53.696Z,99546.28
2023-07-14T21:10:23.024Z,99548.59
2023-07-14T21:12:51.607Z,99553.75
2023-07-14T21:15:21.416Z,99560.56
2023-07-14T21:17:49.851Z,99558.31
2023-07-14T21:20:18.519Z,99563.00
2023-07-14T21:22:46.945Z,99561.50
2023-07-14T21:25:17.186Z,99560.09
2023-07-14T21:27:46.706Z,99566.19
2023-07-14T21:30:15.777Z,99565.03
2023-07-14T21:32:45.616Z,99558.69
2023-07-14T21:35:19.482Z,99560.34
2023-07-14T21:37:48.743Z,99558.09
2023-07-14T21:40:18.686Z,99557.31
2023-07-14T21:42:50.757Z,99564.69
2023-07-14T21:45:20.750Z,99552.63
2023-07-14T21:47:50.748Z,99559.31
2023-07-14T21:50:19.359Z,99555.31
2023-07-14T21:52:53.353Z,99555.66
2023-07-14T21:55:21.933Z,99562.00
2023-07-14T21:57:50.948Z,99563.28
2023-07-14T22:00:20.428Z,99563.97
2023-07-14T22:02:50.277Z,99568.66
2023-07-14T22:05:19.338Z,99553.78
2023-07-14T22:07:47.720Z,99550.47
2023-07-14T22:10:18.458Z,99565.03
2023-07-14T22:12:50.107Z,99562.44
2023-07-14T22:15:23.776Z,99561.72
2023-07-14T22:17:53.794Z,99565.16
2023-07-14T22:20:22.493Z,99558.59
2023-07-14T22:22:51.020Z,99561.03
2023-07-14T22:25:19.715Z,99577.66
2023-07-14T22:27:48.575Z,99567.25
2023-07-14T22:30:17.579Z,99566.19
2023-07-14T22:32:47.501Z,99572.34
2023-07-14T22:35:19.089Z,99569.22
2023-07-14T22:37:47.904Z,99574.94
2023-07-14T22:40:17.523Z,99567.69
2023-07-14T22:42:46.445Z,99569.44
2023-07-14T22:45:16.276Z,99561.94
2023-07-14T22:47:45.543Z,99556.00
2023-07-14T22:50:17.271Z,99555.88
2023-07-14T22:52:46.231Z,99565.69
2023-07-14T22:55:18.195Z,99558.78
2023-07-14T22:57:47.734Z,99565.22
2023-07-14T23:00:18.436Z,99556.44
2023-07-14T23:02:47.765Z,99554.94
2023-07-14T23:05:19.391Z,99554.09
2023-07-14T23:07:49.286Z,99538.50
2023-07-14T23:10:18.604Z,99545.56
2023-07-14T23:12:49.670Z,99549.97
2023-07-14T23:15:19.970Z,99558.19
2023-07-14T23:17:48.447Z,99564.28
2023-07-14T23:20:18.584Z,99561.00
2023-07-14T23:22:47.385Z,99554.66
2023-07-14T23:25:20.827Z,99554.00
2023-07-14T23:27:49.656Z,99545.06
2023-07-14T23:30:18.044Z,99549.53
2023-07-14T23:32:46.607Z,99549.03
2023-07-14T23:35:20.111Z,99555.59
2023-07-14T23:37:48.754Z,99547.16
2023-07-14T23:40:19.223Z,99540.25
2023-07-14T23:42:49.892Z,99546.72
2023-07-14T23:45:23.399Z,99527.97
2023-07-14T23:47:51.944Z,99527.16
2023-07-14T23:50:22.651Z,99533.09
2023-07-14T23:52:51.151Z,99535.34
2023-07-14T23:55:23.084Z,99534.03
2023-07-14T23:57:51.619Z,99526.31
